sensor_id;sensor_type;location;lat;lon;timestamp;P1;durP1;ratioP1;P2;durP2;ratioP2
69900;SDS011;57183;50.930;5.406;2022-12-10T00:01:40;71.75;;;31.25;;
69900;SDS011;57183;50.930;5.406;2022-12-10T00:04:07;62.22;;;30.70;;
69900;SDS011;57183;50.930;5.406;2022-12-10T00:06:34;76.75;;;30.58;;
69900;SDS011;57183;50.930;5.406;2022-12-10T00:09:02;74.28;;;31.23;;
69900;SDS011;57183;50.930;5.406;2022-12-10T00:11:29;64.13;;;29.48;;
69900;SDS011;57183;50.930;5.406;2022-12-10T00:13:55;62.67;;;28.20;;
69900;SDS011;57183;50.930;5.406;2022-12-10T00:16:23;66.32;;;29.92;;
69900;SDS011;57183;50.930;5.406;2022-12-10T00:18:50;65.60;;;27.75;;
69900;SDS011;57183;50.930;5.406;2022-12-10T00:21:18;59.55;;;28.50;;
69900;SDS011;57183;50.930;5.406;2022-12-10T00:23:46;57.05;;;30.20;;
69900;SDS011;57183;50.930;5.406;2022-12-10T00:26:20;62.83;;;27.08;;
69900;SDS011;57183;50.930;5.406;2022-12-10T00:28:48;59.28;;;26.52;;
69900;SDS011;57183;50.930;5.406;2022-12-10T00:31:36;66.68;;;28.67;;
69900;SDS011;57183;50.930;5.406;2022-12-10T00:34:03;56.80;;;25.40;;
69900;SDS011;57183;50.930;5.406;2022-12-10T00:36:31;60.30;;;29.88;;
69900;SDS011;57183;50.930;5.406;2022-12-10T00:39:03;61.58;;;32.90;;
69900;SDS011;57183;50.930;5.406;2022-12-10T00:41:29;59.67;;;29.30;;
69900;SDS011;57183;50.930;5.406;2022-12-10T00:43:55;64.05;;;31.73;;
69900;SDS011;57183;50.930;5.406;2022-12-10T00:46:21;72.82;;;35.47;;
69900;SDS011;57183;50.930;5.406;2022-12-10T00:48:46;72.93;;;35.60;;
69900;SDS011;57183;50.930;5.406;2022-12-10T00:53:49;59.22;;;30.73;;
69900;SDS011;57183;50.930;5.406;2022-12-10T00:56:17;59.50;;;30.65;;
69900;SDS011;57183;50.930;5.406;2022-12-10T00:58:45;62.75;;;31.17;;
69900;SDS011;57183;50.930;5.406;2022-12-10T01:03:51;78.80;;;37.15;;
69900;SDS011;57183;50.930;5.406;2022-12-10T01:06:20;64.10;;;33.40;;
69900;SDS011;57183;50.930;5.406;2022-12-10T01:08:51;66.15;;;33.05;;
69900;SDS011;57183;50.930;5.406;2022-12-10T01:11:18;62.47;;;32.80;;
69900;SDS011;57183;50.930;5.406;2022-12-10T01:13:46;58.78;;;28.20;;
69900;SDS011;57183;50.930;5.406;2022-12-10T01:16:13;64.80;;;30.70;;
69900;SDS011;57183;50.930;5.406;2022-12-10T01:18:40;57.53;;;30.77;;
69900;SDS011;57183;50.930;5.406;2022-12-10T01:21:07;59.40;;;31.05;;
69900;SDS011;57183;50.930;5.406;2022-12-10T01:23:36;74.72;;;35.03;;
69900;SDS011;57183;50.930;5.406;2022-12-10T01:26:04;68.63;;;34.20;;
69900;SDS011;57183;50.930;5.406;2022-12-10T01:28:31;65.85;;;31.98;;
69900;SDS011;57183;50.930;5.406;2022-12-10T01:31:02;61.83;;;33.22;;
69900;SDS011;57183;50.930;5.406;2022-12-10T01:33:38;63.05;;;30.48;;
69900;SDS011;57183;50.930;5.406;2022-12-10T01:36:07;65.65;;;31.65;;
69900;SDS011;57183;50.930;5.406;2022-12-10T01:38:34;64.97;;;31.05;;
69900;SDS011;57183;50.930;5.406;2022-12-10T01:41:00;61.78;;;30.50;;
69900;SDS011;57183;50.930;5.406;2022-12-10T01:43:26;60.03;;;31.48;;
69900;SDS011;57183;50.930;5.406;2022-12-10T01:45:53;60.15;;;30.88;;
69900;SDS011;57183;50.930;5.406;2022-12-10T01:48:18;70.18;;;33.88;;
69900;SDS011;57183;50.930;5.406;2022-12-10T01:50:44;54.97;;;29.30;;
69900;SDS011;57183;50.930;5.406;2022-12-10T01:53:11;51.92;;;25.35;;
69900;SDS011;57183;50.930;5.406;2022-12-10T01:58:15;61.17;;;26.75;;
69900;SDS011;57183;50.930;5.406;2022-12-10T02:00:55;49.33;;;24.90;;
69900;SDS011;57183;50.930;5.406;2022-12-10T02:06:16;48.08;;;24.15;;
69900;SDS011;57183;50.930;5.406;2022-12-10T02:09:02;48.67;;;22.58;;
69900;SDS011;57183;50.930;5.406;2022-12-10T02:14:17;47.35;;;22.80;;
69900;SDS011;57183;50.930;5.406;2022-12-10T02:16:52;51.50;;;22.98;;
69900;SDS011;57183;50.930;5.406;2022-12-10T02:21:58;52.10;;;20.95;;
69900;SDS011;57183;50.930;5.406;2022-12-10T02:24:27;42.35;;;21.83;;
69900;SDS011;57183;50.930;5.406;2022-12-10T02:27:05;45.00;;;20.80;;
69900;SDS011;57183;50.930;5.406;2022-12-10T02:29:32;45.38;;;21.75;;
69900;SDS011;57183;50.930;5.406;2022-12-10T02:32:06;40.05;;;20.35;;
69900;SDS011;57183;50.930;5.406;2022-12-10T02:34:41;44.95;;;20.80;;
69900;SDS011;57183;50.930;5.406;2022-12-10T02:37:29;41.47;;;21.05;;
69900;SDS011;57183;50.930;5.406;2022-12-10T02:39:59;49.75;;;22.08;;
69900;SDS011;57183;50.930;5.406;2022-12-10T02:42:29;44.58;;;21.90;;
69900;SDS011;57183;50.930;5.406;2022-12-10T02:44:56;46.20;;;21.73;;
69900;SDS011;57183;50.930;5.406;2022-12-10T02:47:23;42.92;;;21.95;;
69900;SDS011;57183;50.930;5.406;2022-12-10T02:49:51;45.22;;;22.70;;
69900;SDS011;57183;50.930;5.406;2022-12-10T02:52:20;46.58;;;23.73;;
69900;SDS011;57183;50.930;5.406;2022-12-10T02:54:47;50.13;;;23.95;;
69900;SDS011;57183;50.930;5.406;2022-12-10T03:02:22;50.60;;;24.48;;
69900;SDS011;57183;50.930;5.406;2022-12-10T03:05:12;57.40;;;24.38;;
69900;SDS011;57183;50.930;5.406;2022-12-10T03:10:24;53.60;;;25.00;;
69900;SDS011;57183;50.930;5.406;2022-12-10T03:13:01;45.55;;;21.75;;
69900;SDS011;57183;50.930;5.406;2022-12-10T03:15:33;43.30;;;21.52;;
69900;SDS011;57183;50.930;5.406;2022-12-10T03:18:02;44.03;;;20.90;;
69900;SDS011;57183;50.930;5.406;2022-12-10T03:20:30;44.67;;;21.85;;
69900;SDS011;57183;50.930;5.406;2022-12-10T03:22:57;43.97;;;20.05;;
69900;SDS011;57183;50.930;5.406;2022-12-10T03:25:25;45.00;;;23.17;;
69900;SDS011;57183;50.930;5.406;2022-12-10T03:27:54;47.70;;;21.02;;
69900;SDS011;57183;50.930;5.406;2022-12-10T03:30:22;45.25;;;22.70;;
69900;SDS011;57183;50.930;5.406;2022-12-10T03:32:48;46.78;;;22.35;;
69900;SDS011;57183;50.930;5.406;2022-12-10T03:35:14;42.75;;;21.35;;
69900;SDS011;57183;50.930;5.406;2022-12-10T03:37:42;39.08;;;20.63;;
69900;SDS011;57183;50.930;5.406;2022-12-10T03:40:08;39.90;;;22.15;;
69900;SDS011;57183;50.930;5.406;2022-12-10T03:42:36;40.90;;;21.17;;
69900;SDS011;57183;50.930;5.406;2022-12-10T03:45:03;42.25;;;21.98;;
69900;SDS011;57183;50.930;5.406;2022-12-10T03:47:29;41.70;;;21.45;;
69900;SDS011;57183;50.930;5.406;2022-12-10T03:49:55;50.45;;;24.35;;
69900;SDS011;57183;50.930;5.406;2022-12-10T03:52:21;44.33;;;20.98;;
69900;SDS011;57183;50.930;5.406;2022-12-10T03:54:47;48.92;;;24.00;;
69900;SDS011;57183;50.930;5.406;2022-12-10T03:57:12;50.22;;;23.65;;
69900;SDS011;57183;50.930;5.406;2022-12-10T03:59:38;47.88;;;23.58;;
69900;SDS011;57183;50.930;5.406;2022-12-10T04:02:04;47.88;;;22.92;;
69900;SDS011;57183;50.930;5.406;2022-12-10T04:04:30;50.15;;;22.30;;
69900;SDS011;57183;50.930;5.406;2022-12-10T04:06:56;50.05;;;25.10;;
69900;SDS011;57183;50.930;5.406;2022-12-10T04:09:21;50.50;;;24.70;;
69900;SDS011;57183;50.930;5.406;2022-12-10T04:11:47;55.50;;;24.67;;
69900;SDS011;57183;50.930;5.406;2022-12-10T04:14:13;46.72;;;23.55;;
69900;SDS011;57183;50.930;5.406;2022-12-10T04:16:58;58.20;;;27.80;;
69900;SDS011;57183;50.930;5.406;2022-12-10T04:19:24;48.70;;;22.88;;
69900;SDS011;57183;50.930;5.406;2022-12-10T04:21:50;55.65;;;24.45;;
69900;SDS011;57183;50.930;5.406;2022-12-10T04:24:35;49.55;;;23.25;;
69900;SDS011;57183;50.930;5.406;2022-12-10T04:29:51;51.47;;;24.98;;
69900;SDS011;57183;50.930;5.406;2022-12-10T04:32:17;61.58;;;27.30;;
69900;SDS011;57183;50.930;5.406;2022-12-10T04:34:44;55.20;;;26.27;;
69900;SDS011;57183;50.930;5.406;2022-12-10T04:37:10;49.08;;;24.45;;
69900;SDS011;57183;50.930;5.406;2022-12-10T04:39:36;53.95;;;25.70;;
69900;SDS011;57183;50.930;5.406;2022-12-10T04:42:07;52.22;;;25.85;;
69900;SDS011;57183;50.930;5.406;2022-12-10T04:44:42;56.03;;;26.98;;
69900;SDS011;57183;50.930;5.406;2022-12-10T04:47:08;50.00;;;23.98;;
69900;SDS011;57183;50.930;5.406;2022-12-10T04:49:35;47.78;;;24.42;;
69900;SDS011;57183;50.930;5.406;2022-12-10T04:52:01;56.08;;;26.38;;
69900;SDS011;57183;50.930;5.406;2022-12-10T04:54:27;56.28;;;24.65;;
69900;SDS011;57183;50.930;5.406;2022-12-10T04:56:54;51.45;;;24.60;;
69900;SDS011;57183;50.930;5.406;2022-12-10T04:59:19;55.67;;;25.55;;
69900;SDS011;57183;50.930;5.406;2022-12-10T05:01:46;57.13;;;27.48;;
69900;SDS011;57183;50.930;5.406;2022-12-10T05:04:13;61.83;;;25.58;;
69900;SDS011;57183;50.930;5.406;2022-12-10T05:06:42;52.17;;;25.20;;
69900;SDS011;57183;50.930;5.406;2022-12-10T05:09:12;56.78;;;24.02;;
69900;SDS011;57183;50.930;5.406;2022-12-10T05:11:41;56.15;;;24.98;;
69900;SDS011;57183;50.930;5.406;2022-12-10T05:14:10;56.08;;;25.48;;
69900;SDS011;57183;50.930;5.406;2022-12-10T05:16:36;54.90;;;25.23;;
69900;SDS011;57183;50.930;5.406;2022-12-10T05:19:02;56.50;;;25.80;;
69900;SDS011;57183;50.930;5.406;2022-12-10T05:21:28;58.47;;;25.02;;
69900;SDS011;57183;50.930;5.406;2022-12-10T05:24:14;53.58;;;24.95;;
69900;SDS011;57183;50.930;5.406;2022-12-10T05:26:40;51.38;;;24.83;;
69900;SDS011;57183;50.930;5.406;2022-12-10T05:29:06;51.35;;;25.05;;
69900;SDS011;57183;50.930;5.406;2022-12-10T05:31:33;55.55;;;26.35;;
69900;SDS011;57183;50.930;5.406;2022-12-10T05:33:58;47.75;;;25.63;;
69900;SDS011;57183;50.930;5.406;2022-12-10T05:36:25;54.63;;;25.30;;
69900;SDS011;57183;50.930;5.406;2022-12-10T05:38:56;56.25;;;24.88;;
69900;SDS011;57183;50.930;5.406;2022-12-10T05:41:23;63.15;;;28.30;;
69900;SDS011;57183;50.930;5.406;2022-12-10T05:43:53;59.42;;;26.75;;
69900;SDS011;57183;50.930;5.406;2022-12-10T05:46:20;55.65;;;26.38;;
69900;SDS011;57183;50.930;5.406;2022-12-10T05:48:48;57.65;;;25.45;;
69900;SDS011;57183;50.930;5.406;2022-12-10T05:51:15;55.65;;;26.02;;
69900;SDS011;57183;50.930;5.406;2022-12-10T05:53:43;53.97;;;24.55;;
69900;SDS011;57183;50.930;5.406;2022-12-10T05:56:10;57.45;;;25.80;;
69900;SDS011;57183;50.930;5.406;2022-12-10T05:58:38;54.35;;;23.38;;
69900;SDS011;57183;50.930;5.406;2022-12-10T06:01:06;54.33;;;23.27;;
69900;SDS011;57183;50.930;5.406;2022-12-10T06:03:33;57.70;;;23.77;;
69900;SDS011;57183;50.930;5.406;2022-12-10T06:05:58;58.53;;;23.10;;
69900;SDS011;57183;50.930;5.406;2022-12-10T06:08:24;50.08;;;21.55;;
69900;SDS011;57183;50.930;5.406;2022-12-10T06:10:50;58.08;;;24.10;;
69900;SDS011;57183;50.930;5.406;2022-12-10T06:13:16;55.25;;;21.17;;
69900;SDS011;57183;50.930;5.406;2022-12-10T06:15:42;57.40;;;23.38;;
69900;SDS011;57183;50.930;5.406;2022-12-10T06:18:08;52.70;;;21.65;;
69900;SDS011;57183;50.930;5.406;2022-12-10T06:20:36;54.38;;;22.42;;
69900;SDS011;57183;50.930;5.406;2022-12-10T06:23:03;54.83;;;21.25;;
69900;SDS011;57183;50.930;5.406;2022-12-10T06:25:28;53.45;;;22.08;;
69900;SDS011;57183;50.930;5.406;2022-12-10T06:27:54;56.00;;;23.70;;
69900;SDS011;57183;50.930;5.406;2022-12-10T06:30:20;57.47;;;23.80;;
69900;SDS011;57183;50.930;5.406;2022-12-10T06:32:45;53.97;;;24.02;;
69900;SDS011;57183;50.930;5.406;2022-12-10T06:35:13;52.90;;;21.90;;
69900;SDS011;57183;50.930;5.406;2022-12-10T06:37:39;61.05;;;24.23;;
69900;SDS011;57183;50.930;5.406;2022-12-10T06:40:05;64.32;;;25.92;;
69900;SDS011;57183;50.930;5.406;2022-12-10T06:42:31;55.97;;;24.88;;
69900;SDS011;57183;50.930;5.406;2022-12-10T06:44:57;61.25;;;22.30;;
69900;SDS011;57183;50.930;5.406;2022-12-10T06:47:22;53.28;;;22.27;;
69900;SDS011;57183;50.930;5.406;2022-12-10T06:49:48;52.60;;;22.70;;
69900;SDS011;57183;50.930;5.406;2022-12-10T06:52:21;54.70;;;21.98;;
69900;SDS011;57183;50.930;5.406;2022-12-10T06:54:47;53.33;;;22.75;;
69900;SDS011;57183;50.930;5.406;2022-12-10T06:57:13;55.15;;;23.48;;
69900;SDS011;57183;50.930;5.406;2022-12-10T06:59:39;54.85;;;24.55;;
69900;SDS011;57183;50.930;5.406;2022-12-10T07:02:05;61.20;;;24.42;;
69900;SDS011;57183;50.930;5.406;2022-12-10T07:04:31;52.25;;;22.15;;
69900;SDS011;57183;50.930;5.406;2022-12-10T07:06:56;60.47;;;23.73;;
69900;SDS011;57183;50.930;5.406;2022-12-10T07:09:22;59.00;;;24.63;;
69900;SDS011;57183;50.930;5.406;2022-12-10T07:11:49;59.25;;;24.38;;
69900;SDS011;57183;50.930;5.406;2022-12-10T07:14:15;62.83;;;24.38;;
69900;SDS011;57183;50.930;5.406;2022-12-10T07:16:41;57.92;;;25.52;;
69900;SDS011;57183;50.930;5.406;2022-12-10T07:19:08;61.60;;;26.95;;
69900;SDS011;57183;50.930;5.406;2022-12-10T07:21:37;54.83;;;24.48;;
69900;SDS011;57183;50.930;5.406;2022-12-10T07:24:09;60.80;;;24.90;;
69900;SDS011;57183;50.930;5.406;2022-12-10T07:26:44;59.40;;;24.08;;
69900;SDS011;57183;50.930;5.406;2022-12-10T07:29:18;61.45;;;24.67;;
69900;SDS011;57183;50.930;5.406;2022-12-10T07:31:45;59.53;;;23.55;;
69900;SDS011;57183;50.930;5.406;2022-12-10T07:34:13;58.28;;;22.00;;
69900;SDS011;57183;50.930;5.406;2022-12-10T07:36:40;57.53;;;23.38;;
69900;SDS011;57183;50.930;5.406;2022-12-10T07:39:07;67.10;;;23.02;;
69900;SDS011;57183;50.930;5.406;2022-12-10T07:41:34;57.85;;;23.55;;
69900;SDS011;57183;50.930;5.406;2022-12-10T07:44:01;52.72;;;20.95;;
69900;SDS011;57183;50.930;5.406;2022-12-10T07:46:31;51.17;;;22.67;;
69900;SDS011;57183;50.930;5.406;2022-12-10T07:49:01;56.63;;;21.92;;
69900;SDS011;57183;50.930;5.406;2022-12-10T07:51:36;52.50;;;21.98;;
69900;SDS011;57183;50.930;5.406;2022-12-10T07:54:02;53.95;;;21.45;;
69900;SDS011;57183;50.930;5.406;2022-12-10T07:56:28;57.28;;;21.27;;
69900;SDS011;57183;50.930;5.406;2022-12-10T07:58:54;49.80;;;21.83;;
69900;SDS011;57183;50.930;5.406;2022-12-10T08:01:21;54.35;;;19.90;;
69900;SDS011;57183;50.930;5.406;2022-12-10T08:03:48;53.13;;;22.45;;
69900;SDS011;57183;50.930;5.406;2022-12-10T08:06:15;54.35;;;21.10;;
69900;SDS011;57183;50.930;5.406;2022-12-10T08:08:43;53.28;;;21.42;;
69900;SDS011;57183;50.930;5.406;2022-12-10T08:11:09;62.05;;;23.23;;
69900;SDS011;57183;50.930;5.406;2022-12-10T08:13:36;59.15;;;23.75;;
69900;SDS011;57183;50.930;5.406;2022-12-10T08:16:07;55.70;;;23.45;;
69900;SDS011;57183;50.930;5.406;2022-12-10T08:18:36;60.70;;;23.40;;
69900;SDS011;57183;50.930;5.406;2022-12-10T08:21:04;54.55;;;21.48;;
69900;SDS011;57183;50.930;5.406;2022-12-10T08:23:30;56.58;;;23.65;;
69900;SDS011;57183;50.930;5.406;2022-12-10T08:25:56;57.05;;;23.50;;
69900;SDS011;57183;50.930;5.406;2022-12-10T08:28:22;58.92;;;24.45;;
69900;SDS011;57183;50.930;5.406;2022-12-10T08:30:48;60.88;;;24.10;;
69900;SDS011;57183;50.930;5.406;2022-12-10T08:33:14;63.00;;;24.35;;
69900;SDS011;57183;50.930;5.406;2022-12-10T08:35:40;53.97;;;21.70;;
69900;SDS011;57183;50.930;5.406;2022-12-10T08:38:06;49.72;;;19.73;;
69900;SDS011;57183;50.930;5.406;2022-12-10T08:40:31;53.63;;;21.17;;
69900;SDS011;57183;50.930;5.406;2022-12-10T08:42:57;54.58;;;23.35;;
69900;SDS011;57183;50.930;5.406;2022-12-10T08:45:23;51.53;;;23.13;;
69900;SDS011;57183;50.930;5.406;2022-12-10T08:47:49;55.88;;;22.33;;
69900;SDS011;57183;50.930;5.406;2022-12-10T08:50:14;56.90;;;23.70;;
69900;SDS011;57183;50.930;5.406;2022-12-10T08:52:40;58.67;;;23.83;;
69900;SDS011;57183;50.930;5.406;2022-12-10T08:55:06;53.65;;;23.00;;
69900;SDS011;57183;50.930;5.406;2022-12-10T08:57:32;52.20;;;21.40;;
69900;SDS011;57183;50.930;5.406;2022-12-10T08:59:58;52.03;;;19.85;;
69900;SDS011;57183;50.930;5.406;2022-12-10T09:02:24;62.63;;;25.10;;
69900;SDS011;57183;50.930;5.406;2022-12-10T09:04:50;47.67;;;20.95;;
69900;SDS011;57183;50.930;5.406;2022-12-10T09:07:16;46.40;;;19.77;;
69900;SDS011;57183;50.930;5.406;2022-12-10T09:09:41;55.75;;;21.73;;
69900;SDS011;57183;50.930;5.406;2022-12-10T09:12:07;58.97;;;23.48;;
69900;SDS011;57183;50.930;5.406;2022-12-10T09:14:33;52.20;;;21.42;;
69900;SDS011;57183;50.930;5.406;2022-12-10T09:16:59;49.05;;;20.55;;
69900;SDS011;57183;50.930;5.406;2022-12-10T09:19:27;60.58;;;22.77;;
69900;SDS011;57183;50.930;5.406;2022-12-10T09:21:53;59.80;;;25.83;;
69900;SDS011;57183;50.930;5.406;2022-12-10T09:24:19;61.78;;;24.85;;
69900;SDS011;57183;50.930;5.406;2022-12-10T09:26:44;60.08;;;25.70;;
69900;SDS011;57183;50.930;5.406;2022-12-10T09:29:12;61.22;;;24.50;;
69900;SDS011;57183;50.930;5.406;2022-12-10T09:31:38;61.42;;;25.88;;
69900;SDS011;57183;50.930;5.406;2022-12-10T09:34:03;62.03;;;27.45;;
69900;SDS011;57183;50.930;5.406;2022-12-10T09:36:29;58.97;;;26.27;;
69900;SDS011;57183;50.930;5.406;2022-12-10T09:38:55;58.42;;;25.38;;
69900;SDS011;57183;50.930;5.406;2022-12-10T09:47:09;59.10;;;26.08;;
69900;SDS011;57183;50.930;5.406;2022-12-10T09:52:23;57.50;;;25.08;;
69900;SDS011;57183;50.930;5.406;2022-12-10T09:54:57;56.30;;;24.10;;
69900;SDS011;57183;50.930;5.406;2022-12-10T09:57:32;55.00;;;22.55;;
69900;SDS011;57183;50.930;5.406;2022-12-10T10:00:19;57.55;;;24.25;;
69900;SDS011;57183;50.930;5.406;2022-12-10T10:02:55;61.03;;;25.08;;
69900;SDS011;57183;50.930;5.406;2022-12-10T10:05:25;53.28;;;24.23;;
69900;SDS011;57183;50.930;5.406;2022-12-10T10:07:55;60.85;;;23.08;;
69900;SDS011;57183;50.930;5.406;2022-12-10T10:10:37;52.08;;;23.67;;
69900;SDS011;57183;50.930;5.406;2022-12-10T10:15:35;59.95;;;27.10;;
69900;SDS011;57183;50.930;5.406;2022-12-10T10:21:04;54.42;;;24.17;;
69900;SDS011;57183;50.930;5.406;2022-12-10T10:23:32;55.53;;;22.65;;
69900;SDS011;57183;50.930;5.406;2022-12-10T10:25:58;52.42;;;23.15;;
69900;SDS011;57183;50.930;5.406;2022-12-10T10:28:24;57.20;;;24.58;;
69900;SDS011;57183;50.930;5.406;2022-12-10T10:30:51;51.28;;;24.02;;
69900;SDS011;57183;50.930;5.406;2022-12-10T10:33:18;52.30;;;21.90;;
69900;SDS011;57183;50.930;5.406;2022-12-10T10:36:02;58.30;;;24.40;;
69900;SDS011;57183;50.930;5.406;2022-12-10T10:38:28;53.65;;;23.65;;
69900;SDS011;57183;50.930;5.406;2022-12-10T10:40:57;45.85;;;20.67;;
69900;SDS011;57183;50.930;5.406;2022-12-10T10:43:25;53.65;;;23.80;;
69900;SDS011;57183;50.930;5.406;2022-12-10T10:46:00;50.33;;;22.40;;
69900;SDS011;57183;50.930;5.406;2022-12-10T10:48:29;52.30;;;22.35;;
69900;SDS011;57183;50.930;5.406;2022-12-10T10:51:17;60.88;;;25.90;;
69900;SDS011;57183;50.930;5.406;2022-12-10T10:53:52;56.78;;;23.42;;
69900;SDS011;57183;50.930;5.406;2022-12-10T11:04:31;42.67;;;21.00;;
69900;SDS011;57183;50.930;5.406;2022-12-10T11:07:52;54.33;;;23.50;;
69900;SDS011;57183;50.930;5.406;2022-12-10T11:09:59;53.40;;;21.70;;
69900;SDS011;57183;50.930;5.406;2022-12-10T11:15:00;54.08;;;23.38;;
69900;SDS011;57183;50.930;5.406;2022-12-10T11:17:27;60.38;;;24.65;;
69900;SDS011;57183;50.930;5.406;2022-12-10T11:24:51;58.28;;;24.98;;
69900;SDS011;57183;50.930;5.406;2022-12-10T11:30:09;52.42;;;21.73;;
69900;SDS011;57183;50.930;5.406;2022-12-10T11:38:07;42.83;;;20.52;;
69900;SDS011;57183;50.930;5.406;2022-12-10T11:43:29;47.92;;;21.90;;
69900;SDS011;57183;50.930;5.406;2022-12-10T11:46:18;50.70;;;20.90;;
69900;SDS011;57183;50.930;5.406;2022-12-10T11:51:52;52.70;;;21.38;;
69900;SDS011;57183;50.930;5.406;2022-12-10T12:08:51;61.28;;;24.80;;
69900;SDS011;57183;50.930;5.406;2022-12-10T12:19:32;61.70;;;24.67;;
69900;SDS011;57183;50.930;5.406;2022-12-10T12:22:05;56.47;;;25.48;;
69900;SDS011;57183;50.930;5.406;2022-12-10T12:24:39;64.40;;;25.75;;
69900;SDS011;57183;50.930;5.406;2022-12-10T12:29:57;61.35;;;25.63;;
69900;SDS011;57183;50.930;5.406;2022-12-10T12:32:46;63.33;;;25.27;;
69900;SDS011;57183;50.930;5.406;2022-12-10T12:38:01;58.53;;;22.52;;
69900;SDS011;57183;50.930;5.406;2022-12-10T12:46:01;66.00;;;23.92;;
69900;SDS011;57183;50.930;5.406;2022-12-10T12:48:37;59.17;;;23.73;;
69900;SDS011;57183;50.930;5.406;2022-12-10T12:51:12;58.35;;;23.88;;
69900;SDS011;57183;50.930;5.406;2022-12-10T12:53:44;53.83;;;21.42;;
69900;SDS011;57183;50.930;5.406;2022-12-10T13:04:56;61.75;;;21.10;;
69900;SDS011;57183;50.930;5.406;2022-12-10T13:07:26;54.53;;;21.00;;
69900;SDS011;57183;50.930;5.406;2022-12-10T13:12:32;62.33;;;22.63;;
69900;SDS011;57183;50.930;5.406;2022-12-10T13:15:20;45.03;;;16.45;;
69900;SDS011;57183;50.930;5.406;2022-12-10T13:18:03;59.63;;;21.67;;
69900;SDS011;57183;50.930;5.406;2022-12-10T13:23:50;59.13;;;22.65;;
69900;SDS011;57183;50.930;5.406;2022-12-10T13:26:23;62.97;;;21.42;;
69900;SDS011;57183;50.930;5.406;2022-12-10T13:29:24;52.45;;;19.70;;
69900;SDS011;57183;50.930;5.406;2022-12-10T13:34:45;67.60;;;22.83;;
69900;SDS011;57183;50.930;5.406;2022-12-10T13:37:16;73.82;;;23.50;;
69900;SDS011;57183;50.930;5.406;2022-12-10T13:40:02;65.07;;;23.75;;
69900;SDS011;57183;50.930;5.406;2022-12-10T13:42:33;60.63;;;22.65;;
69900;SDS011;57183;50.930;5.406;2022-12-10T13:47:46;63.92;;;23.13;;
69900;SDS011;57183;50.930;5.406;2022-12-10T13:50:19;63.50;;;21.15;;
69900;SDS011;57183;50.930;5.406;2022-12-10T13:53:08;55.85;;;21.75;;
69900;SDS011;57183;50.930;5.406;2022-12-10T13:58:41;57.50;;;22.50;;
69900;SDS011;57183;50.930;5.406;2022-12-10T14:07:02;57.08;;;19.38;;
69900;SDS011;57183;50.930;5.406;2022-12-10T14:09:33;56.35;;;21.45;;
69900;SDS011;57183;50.930;5.406;2022-12-10T14:12:04;54.47;;;21.63;;
69900;SDS011;57183;50.930;5.406;2022-12-10T14:14:38;56.95;;;23.77;;
69900;SDS011;57183;50.930;5.406;2022-12-10T14:17:09;56.28;;;23.52;;
69900;SDS011;57183;50.930;5.406;2022-12-10T14:19:45;66.13;;;23.73;;
69900;SDS011;57183;50.930;5.406;2022-12-10T14:22:16;58.97;;;23.70;;
69900;SDS011;57183;50.930;5.406;2022-12-10T14:24:48;66.38;;;24.10;;
69900;SDS011;57183;50.930;5.406;2022-12-10T14:27:16;65.25;;;24.15;;
69900;SDS011;57183;50.930;5.406;2022-12-10T14:29:50;53.35;;;18.75;;
69900;SDS011;57183;50.930;5.406;2022-12-10T14:32:19;64.68;;;22.17;;
69900;SDS011;57183;50.930;5.406;2022-12-10T14:34:52;52.27;;;21.17;;
69900;SDS011;57183;50.930;5.406;2022-12-10T14:37:23;68.03;;;24.35;;
69900;SDS011;57183;50.930;5.406;2022-12-10T14:39:52;71.78;;;23.38;;
69900;SDS011;57183;50.930;5.406;2022-12-10T14:42:18;73.60;;;25.05;;
69900;SDS011;57183;50.930;5.406;2022-12-10T14:44:45;66.00;;;23.23;;
69900;SDS011;57183;50.930;5.406;2022-12-10T14:47:20;67.75;;;23.85;;
69900;SDS011;57183;50.930;5.406;2022-12-10T14:49:48;57.10;;;22.70;;
69900;SDS011;57183;50.930;5.406;2022-12-10T14:52:17;68.50;;;23.85;;
69900;SDS011;57183;50.930;5.406;2022-12-10T14:54:48;62.08;;;22.15;;
69900;SDS011;57183;50.930;5.406;2022-12-10T14:57:24;68.13;;;23.92;;
69900;SDS011;57183;50.930;5.406;2022-12-10T15:00:05;66.72;;;23.48;;
69900;SDS011;57183;50.930;5.406;2022-12-10T15:02:44;68.88;;;23.67;;
69900;SDS011;57183;50.930;5.406;2022-12-10T15:05:16;55.67;;;21.00;;
69900;SDS011;57183;50.930;5.406;2022-12-10T15:07:51;70.60;;;22.52;;
69900;SDS011;57183;50.930;5.406;2022-12-10T15:10:24;66.07;;;22.90;;
69900;SDS011;57183;50.930;5.406;2022-12-10T15:12:54;68.22;;;24.55;;
69900;SDS011;57183;50.930;5.406;2022-12-10T15:28:33;57.95;;;21.15;;
69900;SDS011;57183;50.930;5.406;2022-12-10T15:33:46;62.28;;;23.35;;
69900;SDS011;57183;50.930;5.406;2022-12-10T15:41:49;61.30;;;23.02;;
69900;SDS011;57183;50.930;5.406;2022-12-10T15:46:46;62.10;;;24.23;;
69900;SDS011;57183;50.930;5.406;2022-12-10T15:49:14;60.17;;;23.58;;
69900;SDS011;57183;50.930;5.406;2022-12-10T15:51:40;57.47;;;21.63;;
69900;SDS011;57183;50.930;5.406;2022-12-10T15:54:41;61.97;;;23.48;;
69900;SDS011;57183;50.930;5.406;2022-12-10T15:57:06;48.40;;;19.00;;
69900;SDS011;57183;50.930;5.406;2022-12-10T15:59:40;47.88;;;19.67;;
69900;SDS011;57183;50.930;5.406;2022-12-10T16:02:43;42.75;;;18.02;;
69900;SDS011;57183;50.930;5.406;2022-12-10T16:05:13;47.00;;;18.00;;
69900;SDS011;57183;50.930;5.406;2022-12-10T16:07:48;46.10;;;17.27;;
69900;SDS011;57183;50.930;5.406;2022-12-10T16:10:19;43.15;;;18.95;;
69900;SDS011;57183;50.930;5.406;2022-12-10T16:12:49;54.22;;;20.55;;
69900;SDS011;57183;50.930;5.406;2022-12-10T16:15:26;46.72;;;18.90;;
69900;SDS011;57183;50.930;5.406;2022-12-10T16:17:54;44.75;;;19.10;;
69900;SDS011;57183;50.930;5.406;2022-12-10T16:20:27;48.40;;;19.13;;
69900;SDS011;57183;50.930;5.406;2022-12-10T16:22:55;45.17;;;19.08;;
69900;SDS011;57183;50.930;5.406;2022-12-10T16:25:26;51.60;;;21.63;;
69900;SDS011;57183;50.930;5.406;2022-12-10T16:27:54;49.25;;;20.50;;
69900;SDS011;57183;50.930;5.406;2022-12-10T16:30:30;52.70;;;20.42;;
69900;SDS011;57183;50.930;5.406;2022-12-10T16:33:02;49.70;;;20.38;;
69900;SDS011;57183;50.930;5.406;2022-12-10T16:35:31;49.78;;;19.90;;
69900;SDS011;57183;50.930;5.406;2022-12-10T16:37:57;52.33;;;20.35;;
69900;SDS011;57183;50.930;5.406;2022-12-10T16:40:24;57.75;;;20.38;;
69900;SDS011;57183;50.930;5.406;2022-12-10T16:43:01;56.65;;;20.25;;
69900;SDS011;57183;50.930;5.406;2022-12-10T16:45:31;51.58;;;20.95;;
69900;SDS011;57183;50.930;5.406;2022-12-10T16:48:02;53.05;;;20.05;;
69900;SDS011;57183;50.930;5.406;2022-12-10T16:50:32;53.50;;;20.13;;
69900;SDS011;57183;50.930;5.406;2022-12-10T16:53:02;66.53;;;22.95;;
69900;SDS011;57183;50.930;5.406;2022-12-10T16:55:35;63.78;;;22.98;;
69900;SDS011;57183;50.930;5.406;2022-12-10T16:58:01;59.50;;;22.25;;
69900;SDS011;57183;50.930;5.406;2022-12-10T17:00:27;59.15;;;22.05;;
69900;SDS011;57183;50.930;5.406;2022-12-10T17:49:33;49.67;;;20.20;;
69900;SDS011;57183;50.930;5.406;2022-12-10T20:09:50;56.97;;;22.45;;
69900;SDS011;57183;50.930;5.406;2022-12-10T20:12:28;54.85;;;21.23;;
69900;SDS011;57183;50.930;5.406;2022-12-10T21:59:30;49.67;;;20.27;;
